Time;durP1;ratioP1;P1;durP2;ratioP2;P2;SDS_P1;SDS_P2;PMS_P1;PMS_P2;Temp;Humidity;BMP_temperature;BMP_pressure;BME280_temperature;BME280_humidity;BME280_pressure;Samples;Min_cycle;Max_cycle;Signal;HPM_P1;HPM_P2
2021/12/31 00:01:42;;;;;;;10.32;6.95;;;6.80;99.90;;;;;;5227175;28;20025;-78
2021/12/31 00:04:13;;;;;;;13.27;6.97;;;6.80;99.90;;;;;;5227260;28;20038;-79
2021/12/31 00:06:45;;;;;;;13.60;8.32;;;6.80;99.90;;;;;;5227026;28;20075;-79
2021/12/31 00:09:15;;;;;;;20.73;9.25;;;6.70;99.90;;;;;;5231062;28;20028;-78
2021/12/31 00:11:46;;;;;;;13.18;9.05;;;6.70;99.90;;;;;;5230956;28;20028;-78
2021/12/31 00:14:19;;;;;;;13.35;7.25;;;6.80;99.90;;;;;;5230883;28;20107;-78
2021/12/31 00:16:50;;;;;;;13.98;8.35;;;6.80;99.90;;;;;;5230771;28;20060;-77
2021/12/31 00:19:22;;;;;;;13.27;7.15;;;6.80;99.90;;;;;;5229606;28;20071;-79
2021/12/31 00:21:52;;;;;;;16.23;7.35;;;6.70;99.90;;;;;;5230686;28;20032;-77
2021/12/31 00:24:25;;;;;;;10.90;6.90;;;6.80;99.90;;;;;;5230940;28;20404;-78
2021/12/31 00:26:56;;;;;;;11.57;7.15;;;6.80;99.90;;;;;;5230544;28;20075;-78
2021/12/31 00:29:31;;;;;;;11.75;7.57;;;6.70;99.90;;;;;;5230420;28;20033;-78
2021/12/31 00:32:07;;;;;;;14.48;7.03;;;6.70;99.90;;;;;;5230334;28;20057;-79
2021/12/31 00:34:42;;;;;;;12.48;7.22;;;6.70;99.90;;;;;;5230274;28;20112;-78
2021/12/31 00:37:34;;;;;;;10.63;6.55;;;6.70;99.90;;;;;;5230334;28;20091;-79
2021/12/31 00:40:11;;;;;;;14.13;7.72;;;6.80;99.90;;;;;;5230414;28;20035;-79
2021/12/31 00:42:43;;;;;;;13.18;7.95;;;6.80;99.90;;;;;;5228921;28;20460;-78
2021/12/31 00:45:16;;;;;;;15.13;9.02;;;6.80;99.90;;;;;;5230346;28;20021;-79
2021/12/31 00:47:48;;;;;;;16.73;6.95;;;6.80;99.90;;;;;;5230140;28;20029;-78
2021/12/31 00:50:19;;;;;;;15.80;9.07;;;6.80;99.90;;;;;;5230124;28;20021;-78
2021/12/31 00:52:50;;;;;;;12.32;8.05;;;6.80;99.90;;;;;;5230258;28;20158;-78
2021/12/31 00:55:21;;;;;;;16.70;8.63;;;6.80;99.90;;;;;;5230041;28;20036;-78
2021/12/31 00:57:52;;;;;;;21.25;10.48;;;6.90;99.90;;;;;;5229702;28;20427;-77
2021/12/31 01:00:23;;;;;;;13.25;8.85;;;6.90;99.90;;;;;;5230097;28;20039;-77
2021/12/31 01:02:54;;;;;;;11.18;8.20;;;6.90;99.90;;;;;;5229777;28;20460;-78
2021/12/31 01:05:26;;;;;;;12.73;8.20;;;6.90;99.90;;;;;;5229325;28;20036;-77
2021/12/31 01:07:57;;;;;;;12.13;7.53;;;6.90;99.90;;;;;;5229530;28;20076;-78
2021/12/31 01:10:30;;;;;;;12.73;7.40;;;6.90;99.90;;;;;;5229620;28;20068;-77
2021/12/31 01:13:07;;;;;;;11.73;7.70;;;6.90;99.90;;;;;;5229560;28;20048;-78
2021/12/31 01:15:42;;;;;;;15.55;7.63;;;6.80;99.90;;;;;;5230025;28;20021;-78
2021/12/31 01:18:19;;;;;;;13.00;7.93;;;6.80;99.90;;;;;;5229369;28;20033;-78
2021/12/31 01:20:49;;;;;;;14.13;8.38;;;6.80;99.90;;;;;;5229437;28;20457;-78
2021/12/31 01:23:20;;;;;;;13.48;8.18;;;6.70;99.90;;;;;;5229753;28;20032;-78
2021/12/31 01:25:51;;;;;;;14.50;7.78;;;6.70;99.90;;;;;;5229552;28;20029;-78
2021/12/31 01:28:22;;;;;;;11.60;7.38;;;6.80;99.90;;;;;;5228354;28;20025;-78
2021/12/31 01:30:53;;;;;;;10.88;6.18;;;6.80;99.90;;;;;;5229377;28;20029;-78
2021/12/31 01:33:24;;;;;;;12.35;7.22;;;6.80;99.90;;;;;;5229230;28;20075;-78
2021/12/31 01:35:54;;;;;;;13.75;6.63;;;6.70;99.90;;;;;;5229217;28;20036;-78
2021/12/31 01:38:25;;;;;;;13.18;7.93;;;6.70;99.90;;;;;;5229165;28;20033;-79
2021/12/31 01:40:56;;;;;;;11.43;7.28;;;6.70;99.90;;;;;;5229198;28;20029;-78
2021/12/31 01:43:27;;;;;;;12.48;6.25;;;6.70;99.90;;;;;;5229225;28;20017;-79
2021/12/31 01:46:00;;;;;;;13.30;6.75;;;6.60;99.90;;;;;;5229067;28;20032;-78
2021/12/31 01:48:37;;;;;;;10.85;6.95;;;6.70;99.90;;;;;;5228970;28;20025;-79
2021/12/31 01:51:08;;;;;;;11.10;6.00;;;6.70;99.90;;;;;;5229135;28;20479;-79
2021/12/31 01:53:39;;;;;;;14.18;6.22;;;6.70;99.90;;;;;;5228892;28;20028;-78
2021/12/31 01:56:10;;;;;;;9.57;5.90;;;6.70;99.90;;;;;;5228926;28;20033;-78
2021/12/31 01:58:42;;;;;;;10.80;5.20;;;6.80;99.90;;;;;;5228769;28;20036;-78
2021/12/31 02:01:13;;;;;;;9.80;5.55;;;6.60;99.90;;;;;;5228832;28;20020;-78
2021/12/31 02:03:44;;;;;;;9.38;5.55;;;6.60;99.90;;;;;;5228836;28;20029;-77
2021/12/31 02:06:15;;;;;;;11.25;6.22;;;6.50;99.90;;;;;;5228972;28;20053;-78
2021/12/31 02:08:46;;;;;;;12.75;5.63;;;6.50;99.90;;;;;;5228681;28;20475;-77
2021/12/31 02:11:17;;;;;;;9.18;5.57;;;6.60;99.90;;;;;;5228760;28;20036;-78
2021/12/31 02:13:48;;;;;;;9.15;6.45;;;6.50;99.90;;;;;;5228633;28;20013;-77
2021/12/31 02:16:19;;;;;;;9.40;6.15;;;6.60;99.90;;;;;;5227376;28;20029;-78
2021/12/31 02:18:50;;;;;;;10.30;6.70;;;6.60;99.90;;;;;;5228353;28;20075;-77
2021/12/31 02:21:21;;;;;;;10.10;5.78;;;6.60;99.90;;;;;;5228480;28;20044;-77
2021/12/31 02:23:55;;;;;;;9.35;6.57;;;6.50;99.90;;;;;;5228551;28;20021;-78
2021/12/31 02:26:26;;;;;;;11.77;7.30;;;6.60;99.90;;;;;;5228335;28;20108;-78
2021/12/31 02:28:57;;;;;;;12.85;6.60;;;6.70;99.90;;;;;;5228401;28;20112;-78
2021/12/31 02:31:27;;;;;;;11.88;5.93;;;6.70;99.90;;;;;;5227456;28;20029;-77
2021/12/31 02:33:58;;;;;;;12.70;6.78;;;6.60;99.90;;;;;;5228375;28;20353;-77
2021/12/31 02:36:29;;;;;;;11.68;6.30;;;6.70;99.90;;;;;;5228007;28;20028;-77
2021/12/31 02:39:00;;;;;;;10.95;6.75;;;6.70;99.90;;;;;;5227900;28;20036;-78
2021/12/31 02:41:31;;;;;;;11.95;7.20;;;6.70;99.90;;;;;;5228128;28;20021;-78
2021/12/31 02:44:02;;;;;;;13.73;7.03;;;6.80;99.90;;;;;;5228277;28;20025;-78
2021/12/31 02:46:32;;;;;;;10.60;6.78;;;6.70;99.90;;;;;;5228191;28;20095;-78
2021/12/31 02:49:03;;;;;;;12.57;6.60;;;6.70;99.90;;;;;;5227906;28;20052;-78
2021/12/31 02:51:34;;;;;;;11.82;7.03;;;6.60;99.90;;;;;;5227918;28;20455;-78
2021/12/31 02:54:11;;;;;;;12.73;7.15;;;6.70;99.90;;;;;;5228152;28;20434;-78
2021/12/31 02:56:42;;;;;;;16.48;7.15;;;6.70;99.90;;;;;;5228091;28;20021;-78
2021/12/31 02:59:13;;;;;;;14.77;7.28;;;6.70;99.90;;;;;;5227837;28;20065;-77
2021/12/31 03:01:44;;;;;;;11.93;7.22;;;6.70;99.90;;;;;;5227987;28;20052;-77
2021/12/31 03:04:16;;;;;;;13.32;7.07;;;6.80;99.90;;;;;;5227841;28;20029;-77
2021/12/31 03:06:49;;;;;;;11.50;6.18;;;6.70;99.90;;;;;;5227581;28;20110;-77
2021/12/31 03:09:23;;;;;;;16.10;8.45;;;6.70;99.90;;;;;;5227877;28;20029;-78
2021/12/31 03:11:57;;;;;;;14.65;7.05;;;6.70;99.90;;;;;;5227897;28;20032;-78
2021/12/31 03:14:29;;;;;;;15.00;7.55;;;6.70;99.90;;;;;;5227729;28;20037;-77
2021/12/31 03:17:00;;;;;;;13.93;6.15;;;6.70;99.90;;;;;;5227833;28;20025;-78
2021/12/31 03:19:31;;;;;;;15.82;7.47;;;6.70;99.90;;;;;;5226406;28;20029;-77
2021/12/31 03:22:02;;;;;;;11.98;7.00;;;6.70;99.90;;;;;;5227672;28;20035;-78
2021/12/31 03:24:33;;;;;;;13.88;7.65;;;6.60;99.90;;;;;;5227597;28;20021;-78
2021/12/31 03:27:04;;;;;;;11.88;7.47;;;6.80;99.90;;;;;;5227643;28;20044;-78
2021/12/31 03:29:35;;;;;;;16.75;6.90;;;6.80;99.90;;;;;;5227602;28;20103;-78
2021/12/31 03:32:06;;;;;;;13.18;5.95;;;6.70;99.90;;;;;;5227648;28;20037;-78
2021/12/31 03:34:37;;;;;;;16.92;6.85;;;6.80;99.90;;;;;;5227461;28;20025;-77
2021/12/31 03:37:07;;;;;;;14.82;7.43;;;6.80;99.90;;;;;;5227442;28;20037;-78
2021/12/31 03:39:38;;;;;;;20.35;7.47;;;6.90;99.90;;;;;;5227679;28;20048;-78
2021/12/31 03:42:14;;;;;;;13.55;7.05;;;6.80;99.90;;;;;;5227769;28;20052;-77
2021/12/31 03:44:45;;;;;;;15.80;7.55;;;6.70;99.90;;;;;;5231277;28;20017;-77
2021/12/31 03:47:16;;;;;;;14.40;7.90;;;6.70;99.90;;;;;;5231474;28;20087;-77
2021/12/31 03:49:47;;;;;;;12.85;7.13;;;6.70;99.90;;;;;;5231294;28;20460;-77
2021/12/31 03:52:18;;;;;;;11.60;6.75;;;6.80;99.90;;;;;;5231538;28;20086;-77
2021/12/31 03:54:49;;;;;;;13.05;7.68;;;6.80;99.90;;;;;;5231498;28;20488;-77
2021/12/31 03:57:20;;;;;;;17.30;6.85;;;6.80;99.90;;;;;;5231119;28;20037;-77
2021/12/31 03:59:51;;;;;;;15.10;7.43;;;6.90;99.90;;;;;;5231439;28;20353;-77
2021/12/31 04:02:22;;;;;;;12.23;7.03;;;6.80;99.90;;;;;;5231238;28;20021;-77
2021/12/31 04:04:53;;;;;;;12.13;6.70;;;6.80;99.90;;;;;;5231069;28;20343;-77
2021/12/31 04:07:24;;;;;;;12.45;6.20;;;6.80;99.90;;;;;;5231128;28;20052;-77
2021/12/31 04:09:55;;;;;;;9.38;6.03;;;6.80;99.90;;;;;;5231002;28;20021;-77
2021/12/31 04:12:26;;;;;;;15.65;6.60;;;6.80;99.90;;;;;;5231218;28;20029;-77
2021/12/31 04:14:57;;;;;;;13.20;7.07;;;6.80;99.90;;;;;;5231013;28;20491;-77
2021/12/31 04:17:27;;;;;;;12.30;6.28;;;6.80;99.90;;;;;;5230571;28;20041;-77
2021/12/31 04:19:58;;;;;;;13.50;6.82;;;6.80;99.90;;;;;;5231084;28;20024;-78
2021/12/31 04:22:31;;;;;;;12.13;5.38;;;6.90;99.90;;;;;;5230819;28;20025;-77
2021/12/31 04:25:01;;;;;;;13.18;6.93;;;6.90;99.90;;;;;;5231058;28;20028;-77
2021/12/31 04:27:32;;;;;;;11.15;6.05;;;6.90;99.90;;;;;;5230654;28;20035;-78
2021/12/31 04:30:03;;;;;;;9.98;5.80;;;6.90;99.90;;;;;;5230665;28;20091;-78
2021/12/31 04:32:34;;;;;;;9.60;5.70;;;6.90;99.90;;;;;;5230692;28;20052;-77
2021/12/31 04:35:06;;;;;;;10.45;5.40;;;7.00;99.90;;;;;;5230475;28;20485;-77
2021/12/31 04:37:42;;;;;;;9.32;5.45;;;6.90;99.90;;;;;;5230381;28;20482;-77
2021/12/31 04:40:13;;;;;;;10.38;5.30;;;6.90;99.90;;;;;;5230542;28;20440;-78
2021/12/31 04:42:46;;;;;;;10.10;4.70;;;6.90;99.90;;;;;;5230723;28;20096;-78
2021/12/31 04:45:17;;;;;;;7.72;4.70;;;6.80;99.90;;;;;;5229279;28;20025;-78
2021/12/31 04:47:48;;;;;;;7.00;4.53;;;6.80;99.90;;;;;;5230552;28;20163;-78
2021/12/31 04:50:19;;;;;;;9.13;4.93;;;6.80;99.90;;;;;;5230158;28;20100;-78
2021/12/31 04:52:50;;;;;;;8.52;4.00;;;6.90;99.90;;;;;;5230283;28;20452;-78
2021/12/31 04:55:21;;;;;;;9.15;4.22;;;7.00;99.90;;;;;;5229154;28;20032;-78
2021/12/31 04:57:52;;;;;;;8.15;4.65;;;6.90;99.90;;;;;;5228746;28;20562;-78
2021/12/31 05:00:23;;;;;;;7.60;4.25;;;6.90;99.90;;;;;;5230120;28;20053;-78
2021/12/31 05:02:54;;;;;;;9.48;3.85;;;6.90;99.90;;;;;;5230177;28;20024;-77
2021/12/31 05:05:25;;;;;;;6.68;4.05;;;6.80;99.90;;;;;;5229871;28;20368;-78
2021/12/31 05:07:56;;;;;;;10.18;4.68;;;6.90;99.90;;;;;;5229706;28;20056;-78
2021/12/31 05:10:30;;;;;;;9.73;4.70;;;6.80;99.90;;;;;;5230050;28;20411;-78
2021/12/31 05:13:04;;;;;;;10.38;4.55;;;6.90;99.90;;;;;;5229866;28;20025;-78
2021/12/31 05:15:38;;;;;;;12.23;5.72;;;6.90;99.90;;;;;;5229364;28;20013;-78
2021/12/31 05:18:09;;;;;;;8.30;5.22;;;6.90;99.90;;;;;;5229326;28;20037;-78
2021/12/31 05:20:40;;;;;;;8.02;4.75;;;6.90;99.90;;;;;;5229597;28;20439;-78
2021/12/31 05:23:11;;;;;;;6.82;4.20;;;6.90;99.90;;;;;;5229687;28;20103;-78
2021/12/31 05:25:42;;;;;;;5.32;3.70;;;6.90;99.90;;;;;;5228856;28;20120;-77
2021/12/31 05:28:13;;;;;;;5.85;3.70;;;6.80;99.90;;;;;;5229078;28;20037;-75
2021/12/31 05:30:43;;;;;;;6.32;3.53;;;6.90;99.90;;;;;;5229474;28;20017;-77
2021/12/31 05:33:14;;;;;;;8.88;4.47;;;6.90;99.90;;;;;;5229390;28;20055;-77
2021/12/31 05:35:45;;;;;;;9.07;4.65;;;6.90;99.90;;;;;;5229172;28;20032;-77
2021/12/31 05:38:16;;;;;;;5.28;3.67;;;7.00;99.90;;;;;;5228993;28;20094;-78
2021/12/31 05:40:47;;;;;;;6.10;4.10;;;6.80;99.90;;;;;;5228898;28;20031;-78
2021/12/31 05:43:17;;;;;;;5.72;4.03;;;6.90;99.90;;;;;;5229366;28;20029;-77
2021/12/31 05:45:48;;;;;;;8.68;4.60;;;6.90;99.90;;;;;;5229004;28;20079;-78
2021/12/31 05:48:19;;;;;;;8.20;4.95;;;7.00;99.90;;;;;;5228967;28;20432;-78
2021/12/31 05:50:50;;;;;;;10.07;4.78;;;6.90;99.90;;;;;;5228631;28;20090;-78
2021/12/31 05:53:21;;;;;;;7.88;5.05;;;6.80;99.90;;;;;;5228966;28;20032;-78
2021/12/31 05:55:52;;;;;;;8.60;5.53;;;6.90;99.90;;;;;;5228629;28;20047;-77
2021/12/31 05:58:23;;;;;;;12.93;6.05;;;6.90;99.90;;;;;;5228689;28;20033;-78
2021/12/31 06:00:54;;;;;;;12.75;5.60;;;6.90;99.90;;;;;;5229026;28;20071;-78
2021/12/31 06:03:24;;;;;;;12.00;5.88;;;6.90;99.90;;;;;;5228249;28;20086;-78
2021/12/31 06:05:55;;;;;;;10.80;6.00;;;6.90;99.90;;;;;;5228510;28;20636;-77
2021/12/31 06:08:26;;;;;;;9.23;5.82;;;6.90;99.90;;;;;;5222471;28;20065;-77
2021/12/31 06:10:57;;;;;;;8.95;4.65;;;6.80;99.90;;;;;;5207907;28;20369;-76
2021/12/31 06:13:28;;;;;;;9.77;4.78;;;6.90;99.90;;;;;;5207798;28;20449;-77
2021/12/31 06:15:59;;;;;;;8.82;4.53;;;7.00;99.90;;;;;;5207754;28;20018;-77
2021/12/31 06:18:29;;;;;;;9.02;4.40;;;6.90;99.90;;;;;;5219763;28;20047;-77
2021/12/31 06:21:01;;;;;;;10.70;5.78;;;7.00;99.90;;;;;;5207278;28;20542;-78
2021/12/31 06:23:32;;;;;;;7.13;4.80;;;7.00;99.90;;;;;;5207695;28;20033;-77
2021/12/31 06:26:03;;;;;;;6.65;4.00;;;7.00;99.90;;;;;;5207602;28;20147;-77
2021/12/31 06:28:33;;;;;;;8.35;4.90;;;7.00;99.90;;;;;;5207430;28;20489;-76
2021/12/31 06:31:04;;;;;;;13.43;5.93;;;6.90;99.90;;;;;;5206197;28;20468;-77
2021/12/31 06:33:35;;;;;;;14.93;7.70;;;7.00;99.90;;;;;;5226703;28;20182;-78
2021/12/31 06:36:06;;;;;;;7.03;4.93;;;7.10;99.90;;;;;;5228104;28;20021;-77
2021/12/31 06:38:36;;;;;;;9.10;5.80;;;6.90;99.90;;;;;;5227958;28;20098;-77
2021/12/31 06:41:07;;;;;;;10.20;5.55;;;7.00;99.90;;;;;;5228379;28;20028;-75
2021/12/31 06:43:38;;;;;;;13.90;8.80;;;7.00;99.90;;;;;;5227747;28;20033;-78
2021/12/31 06:46:09;;;;;;;12.75;7.05;;;7.00;99.90;;;;;;5227108;28;20067;-78
2021/12/31 06:48:40;;;;;;;11.25;6.50;;;7.10;99.90;;;;;;5225377;28;20036;-77
2021/12/31 06:51:11;;;;;;;8.55;6.28;;;7.00;99.90;;;;;;5223202;28;20113;-77
2021/12/31 06:53:42;;;;;;;9.65;6.47;;;7.00;99.90;;;;;;5221063;28;20464;-78
2021/12/31 06:56:13;;;;;;;9.18;6.00;;;7.00;99.90;;;;;;5225506;28;20013;-81
2021/12/31 06:58:44;;;;;;;10.60;6.40;;;7.10;99.90;;;;;;5226429;28;20372;-78
2021/12/31 07:01:15;;;;;;;14.10;7.03;;;7.00;99.90;;;;;;5225859;28;20021;-79
2021/12/31 07:03:47;;;;;;;8.70;6.18;;;7.10;99.90;;;;;;5226253;28;20025;-79
2021/12/31 07:06:17;;;;;;;11.68;5.28;;;7.00;99.90;;;;;;5214424;28;20078;-80
2021/12/31 07:08:48;;;;;;;10.25;4.95;;;7.20;99.90;;;;;;5226150;28;20408;-81
2021/12/31 07:11:22;;;;;;;12.02;5.80;;;7.20;99.90;;;;;;5223184;28;20021;-78
2021/12/31 07:13:53;;;;;;;8.07;4.88;;;7.10;99.90;;;;;;5226361;28;20025;-77
2021/12/31 07:16:23;;;;;;;5.85;4.07;;;7.20;99.90;;;;;;5226382;28;20020;-78
2021/12/31 07:18:54;;;;;;;9.38;4.93;;;7.20;99.90;;;;;;5230129;28;20075;-78
2021/12/31 07:21:25;;;;;;;7.40;4.13;;;7.30;99.90;;;;;;5231101;28;20025;-78
2021/12/31 07:23:56;;;;;;;5.80;4.35;;;7.30;99.90;;;;;;5230859;28;20056;-77
2021/12/31 07:26:26;;;;;;;6.90;4.53;;;7.30;99.90;;;;;;5230285;28;20426;-78
2021/12/31 07:28:57;;;;;;;6.85;4.15;;;7.20;99.90;;;;;;5229740;28;20405;-79
2021/12/31 07:31:28;;;;;;;8.00;4.70;;;7.20;99.90;;;;;;5230243;28;20078;-78
2021/12/31 07:33:59;;;;;;;6.78;4.10;;;7.40;99.90;;;;;;5230674;28;20801;-78
2021/12/31 07:36:30;;;;;;;5.50;3.85;;;7.40;99.90;;;;;;5230410;28;20037;-78
2021/12/31 07:39:05;;;;;;;6.63;4.03;;;7.40;99.90;;;;;;5230391;28;20772;-78
2021/12/31 07:41:36;;;;;;;5.90;4.30;;;7.40;99.90;;;;;;5230410;28;20095;-78
2021/12/31 07:44:07;;;;;;;7.65;4.15;;;7.50;99.90;;;;;;5230473;28;20016;-78
2021/12/31 07:46:38;;;;;;;6.47;4.45;;;7.40;99.90;;;;;;5230080;28;20017;-78
2021/12/31 07:49:09;;;;;;;12.95;4.72;;;7.50;99.90;;;;;;5230428;28;20070;-75
2021/12/31 07:51:40;;;;;;;8.18;4.53;;;7.40;99.90;;;;;;5229470;28;20025;-79
2021/12/31 07:54:10;;;;;;;6.35;4.30;;;7.50;99.90;;;;;;5230293;28;20017;-79
2021/12/31 07:56:41;;;;;;;18.00;9.25;;;7.50;99.90;;;;;;5229813;28;20029;-78
2021/12/31 07:59:12;;;;;;;12.95;6.68;;;7.60;99.90;;;;;;5230012;28;20044;-75
2021/12/31 08:01:43;;;;;;;7.35;5.57;;;7.60;99.90;;;;;;5227674;28;20032;-78
2021/12/31 08:04:14;;;;;;;14.23;8.05;;;7.50;99.90;;;;;;5229682;28;20149;-78
2021/12/31 08:06:45;;;;;;;18.20;10.75;;;7.40;99.90;;;;;;5229609;28;20044;-77
2021/12/31 08:09:16;;;;;;;11.05;7.10;;;7.50;99.90;;;;;;5227719;28;20433;-76
2021/12/31 08:11:47;;;;;;;14.00;7.40;;;7.40;99.90;;;;;;5222785;28;20032;-75
2021/12/31 08:14:18;;;;;;;9.80;6.93;;;7.40;99.90;;;;;;5224739;28;20484;-79
2021/12/31 08:16:49;;;;;;;12.55;6.80;;;7.30;99.90;;;;;;5224425;28;20445;-75
2021/12/31 08:19:20;;;;;;;15.77;9.93;;;7.30;99.90;;;;;;5228666;28;20104;-77
2021/12/31 08:21:50;;;;;;;19.67;12.95;;;7.30;99.90;;;;;;5229894;28;20431;-75
2021/12/31 08:24:21;;;;;;;10.98;8.07;;;7.40;99.90;;;;;;5229806;28;20230;-77
2021/12/31 08:26:52;;;;;;;9.38;6.43;;;7.40;99.90;;;;;;5229962;28;20487;-77
2021/12/31 08:29:23;;;;;;;9.80;7.25;;;7.40;99.90;;;;;;5230292;28;20100;-77
2021/12/31 08:31:54;;;;;;;11.65;6.35;;;7.40;99.90;;;;;;5230064;28;20074;-76
2021/12/31 08:34:25;;;;;;;8.90;5.50;;;7.30;99.90;;;;;;5215364;28;20025;-78
2021/12/31 08:36:55;;;;;;;11.13;7.90;;;7.40;99.90;;;;;;5219321;28;20040;-77
2021/12/31 08:39:26;;;;;;;9.50;7.07;;;7.50;99.90;;;;;;5219299;28;20040;-79
2021/12/31 08:41:59;;;;;;;10.63;6.40;;;7.50;99.90;;;;;;5229707;28;20029;-76
2021/12/31 08:44:30;;;;;;;11.05;7.47;;;7.50;99.90;;;;;;5229805;28;20461;-82
2021/12/31 08:47:01;;;;;;;11.85;7.47;;;7.60;99.90;;;;;;5229418;28;20033;-81
2021/12/31 08:49:32;;;;;;;8.98;7.15;;;7.50;99.90;;;;;;5229742;28;20025;-78
2021/12/31 08:52:03;;;;;;;10.25;8.15;;;7.50;99.90;;;;;;5229669;28;20082;-79
2021/12/31 08:54:36;;;;;;;10.23;6.72;;;7.50;99.90;;;;;;5223384;28;20028;-79
2021/12/31 08:57:07;;;;;;;8.75;6.00;;;7.60;99.90;;;;;;5228227;28;20029;-81
2021/12/31 08:59:38;;;;;;;13.20;8.15;;;7.60;99.90;;;;;;5229524;28;20060;-81
2021/12/31 09:02:10;;;;;;;12.55;7.90;;;7.60;99.90;;;;;;5228074;28;20071;-81
2021/12/31 09:04:41;;;;;;;9.00;6.50;;;7.70;99.90;;;;;;5228484;28;20056;-81
2021/12/31 09:07:11;;;;;;;9.13;6.00;;;7.60;99.90;;;;;;5228805;28;20041;-79
2021/12/31 09:09:42;;;;;;;12.27;6.20;;;7.70;99.90;;;;;;5227693;28;20029;-78
2021/12/31 09:12:13;;;;;;;6.85;5.35;;;7.70;99.90;;;;;;5229293;28;20013;-80
2021/12/31 09:14:44;;;;;;;26.17;14.30;;;7.70;99.90;;;;;;5221357;28;20346;-82
2021/12/31 09:17:15;;;;;;;12.07;8.45;;;7.70;99.90;;;;;;5229225;28;20099;-80
2021/12/31 09:19:46;;;;;;;17.80;11.00;;;7.70;99.90;;;;;;5228993;28;20048;-82
2021/12/31 09:22:17;;;;;;;11.82;6.97;;;7.70;99.90;;;;;;5229098;28;20029;-82
2021/12/31 09:24:48;;;;;;;86.22;61.03;;;7.70;99.90;;;;;;5228811;28;20091;-82
2021/12/31 09:27:19;;;;;;;35.30;22.98;;;7.70;99.90;;;;;;5229429;28;20025;-83
2021/12/31 09:29:49;;;;;;;20.35;15.00;;;7.80;99.90;;;;;;5228999;28;20021;-81
2021/12/31 09:32:21;;;;;;;30.42;26.35;;;7.70;99.90;;;;;;5228918;28;20051;-81
2021/12/31 09:34:52;;;;;;;19.02;12.98;;;7.90;99.90;;;;;;5228655;28;20050;-81
2021/12/31 09:37:23;;;;;;;11.75;8.77;;;7.90;99.90;;;;;;5229168;28;20025;-81
2021/12/31 09:39:53;;;;;;;9.32;6.82;;;7.90;99.90;;;;;;5228368;28;20033;-82
2021/12/31 09:42:25;;;;;;;14.65;10.77;;;7.90;99.90;;;;;;5228793;28;20021;-82
2021/12/31 09:44:56;;;;;;;11.25;8.48;;;7.90;99.90;;;;;;5228712;28;20025;-76
2021/12/31 09:47:26;;;;;;;18.50;14.38;;;7.90;99.90;;;;;;5228686;28;20090;-77
2021/12/31 09:49:57;;;;;;;8.85;6.30;;;8.00;99.90;;;;;;5221601;28;20029;-81
2021/12/31 09:52:32;;;;;;;7.95;6.80;;;7.90;99.90;;;;;;5228686;28;20029;-82
2021/12/31 09:55:03;;;;;;;12.85;6.55;;;8.00;99.90;;;;;;5228213;28;20043;-82
2021/12/31 09:57:33;;;;;;;9.90;8.88;;;7.90;99.90;;;;;;5228197;28;20021;-79
2021/12/31 10:00:06;;;;;;;9.70;6.55;;;7.80;99.90;;;;;;5228320;28;20037;-80
2021/12/31 10:02:36;;;;;;;16.77;10.52;;;7.90;99.90;;;;;;5228322;28;20028;-85
2021/12/31 10:05:07;;;;;;;13.30;8.32;;;7.80;99.90;;;;;;5228179;28;20037;-79
2021/12/31 10:07:42;;;;;;;13.32;9.05;;;8.00;99.90;;;;;;5228075;28;20045;-80
2021/12/31 10:10:15;;;;;;;12.40;7.57;;;8.00;99.90;;;;;;5228105;28;20028;-79
2021/12/31 10:12:59;;;;;;;8.45;5.30;;;8.00;99.90;;;;;;5228121;28;20484;-80
2021/12/31 10:15:38;;;;;;;10.35;5.97;;;8.00;99.90;;;;;;5219882;28;20025;-81
2021/12/31 10:18:12;;;;;;;11.23;6.88;;;8.10;99.90;;;;;;5228017;28;20427;-77
2021/12/31 10:20:52;;;;;;;8.45;4.85;;;8.10;99.90;;;;;;5227644;28;20123;-77
2021/12/31 10:23:23;;;;;;;9.52;5.95;;;8.10;99.90;;;;;;5227576;28;20073;-82
2021/12/31 10:26:12;;;;;;;9.52;6.97;;;8.20;99.90;;;;;;5227405;28;20025;-83
2021/12/31 10:28:57;;;;;;;8.13;6.78;;;8.20;99.90;;;;;;5227301;28;20021;-81
2021/12/31 10:31:28;;;;;;;6.85;5.18;;;8.20;99.90;;;;;;5227412;28;20029;-86
2021/12/31 10:33:59;;;;;;;9.55;7.05;;;8.10;99.90;;;;;;5226807;28;20023;-83
2021/12/31 10:36:31;;;;;;;5.25;4.05;;;8.10;99.90;;;;;;5213856;28;20029;-82
2021/12/31 10:39:24;;;;;;;7.57;4.45;;;8.00;99.90;;;;;;5227091;28;20090;-82
2021/12/31 10:42:07;;;;;;;6.68;4.45;;;8.30;99.90;;;;;;5227184;28;20021;-82
2021/12/31 10:44:48;;;;;;;7.40;4.40;;;8.20;99.90;;;;;;5227384;28;20472;-77
2021/12/31 10:47:28;;;;;;;9.43;4.43;;;8.20;99.90;;;;;;5227338;28;20025;-81
2021/12/31 10:50:12;;;;;;;5.75;3.92;;;8.30;99.90;;;;;;5226840;28;20048;-78
2021/12/31 10:52:56;;;;;;;6.28;4.45;;;8.40;99.90;;;;;;5226634;28;20100;-81
2021/12/31 10:55:30;;;;;;;6.70;3.88;;;8.50;99.90;;;;;;5227268;28;20082;-78
2021/12/31 10:58:05;;;;;;;5.30;3.78;;;8.30;99.90;;;;;;5227063;28;20032;-81
2021/12/31 11:00:46;;;;;;;7.65;5.88;;;8.30;99.90;;;;;;5226910;28;20033;-79
2021/12/31 11:03:19;;;;;;;7.95;5.07;;;8.30;99.90;;;;;;5219917;28;20031;-79
2021/12/31 11:05:50;;;;;;;9.45;5.65;;;8.20;99.90;;;;;;5221295;28;20083;-79
2021/12/31 11:08:21;;;;;;;9.35;7.00;;;8.50;99.90;;;;;;5221871;28;20041;-74
2021/12/31 11:10:53;;;;;;;12.05;8.60;;;8.30;99.90;;;;;;5222586;28;20075;-82
2021/12/31 11:13:28;;;;;;;12.57;10.43;;;8.40;99.90;;;;;;5222457;28;20033;-77
2021/12/31 11:16:00;;;;;;;6.60;4.93;;;8.30;99.90;;;;;;5226559;28;20028;-77
2021/12/31 11:18:31;;;;;;;4.25;3.00;;;8.50;99.90;;;;;;5226326;28;20084;-76
2021/12/31 11:21:04;;;;;;;9.45;5.97;;;8.50;99.90;;;;;;5225741;28;20053;-82
2021/12/31 11:23:40;;;;;;;7.20;4.63;;;8.60;99.90;;;;;;5222604;28;20029;-82
2021/12/31 11:26:13;;;;;;;5.43;4.45;;;8.60;99.90;;;;;;5225280;28;20029;-80
2021/12/31 11:28:45;;;;;;;9.75;8.23;;;8.60;99.90;;;;;;5226237;28;20075;-80
2021/12/31 11:31:18;;;;;;;8.23;7.32;;;8.80;99.90;;;;;;5217864;28;20025;-80
2021/12/31 11:33:58;;;;;;;5.65;4.03;;;8.70;99.90;;;;;;5222495;28;20031;-80
2021/12/31 11:36:40;;;;;;;5.13;3.77;;;8.70;99.90;;;;;;5225456;28;20062;-81
2021/12/31 11:39:21;;;;;;;11.10;9.40;;;8.90;99.90;;;;;;5224267;28;20077;-78
2021/12/31 11:41:58;;;;;;;4.68;1.98;;;8.60;99.90;;;;;;5223746;28;20017;-82
2021/12/31 11:44:31;;;;;;;5.07;2.92;;;8.50;99.90;;;;;;5223779;28;20091;-81
2021/12/31 11:47:16;;;;;;;3.55;2.97;;;8.50;99.90;;;;;;5226372;28;20040;-80
2021/12/31 11:50:11;;;;;;;5.22;4.40;;;8.70;99.90;;;;;;5220675;28;20032;-76
2021/12/31 11:53:00;;;;;;;4.10;2.70;;;8.70;99.90;;;;;;5222237;28;20445;-80
2021/12/31 11:55:44;;;;;;;5.30;2.80;;;8.70;99.90;;;;;;5226487;28;20021;-81
2021/12/31 11:58:40;;;;;;;4.60;3.13;;;8.80;99.90;;;;;;5226287;28;20041;-79
2021/12/31 12:01:36;;;;;;;8.90;5.47;;;8.90;99.90;;;;;;5217553;28;20025;-80
2021/12/31 12:04:29;;;;;;;7.05;4.00;;;8.80;99.90;;;;;;5220604;28;20098;-81
2021/12/31 12:07:05;;;;;;;9.80;3.92;;;8.80;99.90;;;;;;5230027;28;20037;-82
2021/12/31 12:09:36;;;;;;;11.88;5.53;;;8.80;99.90;;;;;;5229792;28;20033;-78
2021/12/31 12:12:14;;;;;;;16.40;8.32;;;9.00;99.90;;;;;;5229668;28;20376;-83
2021/12/31 12:14:53;;;;;;;22.38;11.18;;;9.00;99.90;;;;;;5228828;28;20013;-81
2021/12/31 12:17:29;;;;;;;8.85;4.18;;;9.00;99.90;;;;;;5229661;28;20082;-81
2021/12/31 12:20:03;;;;;;;4.65;2.97;;;8.90;99.90;;;;;;5224543;28;20618;-80
2021/12/31 12:22:39;;;;;;;6.18;3.15;;;8.90;99.90;;;;;;5230061;28;20025;-79
2021/12/31 12:25:19;;;;;;;5.13;2.20;;;9.00;99.90;;;;;;5229585;28;20025;-81
2021/12/31 12:27:52;;;;;;;4.13;2.03;;;8.60;99.90;;;;;;5226700;28;20025;-81
2021/12/31 12:30:23;;;;;;;4.55;2.10;;;8.90;99.90;;;;;;5229561;28;20486;-81
2021/12/31 12:33:15;;;;;;;7.28;2.25;;;8.80;99.90;;;;;;5229793;28;20472;-79
2021/12/31 12:35:49;;;;;;;4.22;1.92;;;8.70;99.90;;;;;;5213944;28;20034;-77
2021/12/31 12:38:30;;;;;;;3.00;2.00;;;8.50;99.90;;;;;;5229576;28;20377;-78
2021/12/31 12:41:09;;;;;;;4.95;2.10;;;8.70;99.90;;;;;;5222155;28;20025;-82
2021/12/31 12:43:47;;;;;;;8.80;4.00;;;8.70;99.90;;;;;;5229376;28;20024;-81
2021/12/31 12:46:20;;;;;;;8.75;5.97;;;8.70;99.90;;;;;;5222180;28;20500;-79
2021/12/31 12:48:57;;;;;;;19.90;11.88;;;8.80;99.90;;;;;;5227801;28;20045;-80
2021/12/31 12:51:31;;;;;;;5.00;2.13;;;8.80;99.90;;;;;;5228888;28;20047;-82
2021/12/31 12:54:04;;;;;;;4.53;3.60;;;8.50;99.90;;;;;;5226212;28;20032;-78
2021/12/31 12:56:35;;;;;;;13.15;9.30;;;8.70;99.90;;;;;;5229232;28;20067;-80
2021/12/31 12:59:06;;;;;;;6.47;2.42;;;8.80;99.90;;;;;;5228633;28;20037;-77
2021/12/31 13:01:42;;;;;;;6.88;2.25;;;8.70;99.90;;;;;;5229005;28;20040;-78
2021/12/31 13:04:15;;;;;;;4.65;2.47;;;8.90;99.90;;;;;;5228964;28;20025;-78
2021/12/31 13:07:02;;;;;;;4.88;2.88;;;8.90;99.90;;;;;;5228493;28;20175;-76
2021/12/31 13:09:33;;;;;;;6.57;4.43;;;8.80;99.90;;;;;;5229194;28;20041;-79
2021/12/31 13:12:07;;;;;;;7.75;4.32;;;8.80;99.90;;;;;;5229160;28;20048;-77
2021/12/31 13:14:38;;;;;;;7.13;3.60;;;8.80;99.90;;;;;;5228941;28;20017;-77
2021/12/31 13:17:08;;;;;;;4.22;2.97;;;8.90;99.90;;;;;;5229751;28;20453;-75
2021/12/31 13:19:44;;;;;;;12.00;7.97;;;8.70;99.90;;;;;;5229655;28;20029;-76